createdAt,value
2016-10-11T00:00:48.923Z,0
2016-10-11T00:01:48.685Z,0
2016-10-11T00:02:48.672Z,0
2016-10-11T00:03:48.667Z,0
2016-10-11T00:04:48.657Z,0
2016-10-11T00:05:48.630Z,0
2016-10-11T00:06:48.634Z,0
2016-10-11T00:07:48.604Z,0
2016-10-11T00:08:48.602Z,0
2016-10-11T00:09:48.584Z,0
2016-10-11T00:10:48.603Z,0
2016-10-11T00:11:48.564Z,0
2016-10-11T00:12:48.677Z,0
2016-10-11T00:13:48.557Z,0
2016-10-11T00:14:48.533Z,0
2016-10-11T00:15:48.514Z,0
2016-10-11T00:16:48.498Z,0
2016-10-11T00:17:48.505Z,0
2016-10-11T00:18:48.474Z,0
2016-10-11T00:19:48.465Z,0
2016-10-11T00:20:48.458Z,0
2016-10-11T00:21:48.438Z,0
2016-10-11T00:22:48.440Z,0
2016-10-11T00:23:48.407Z,0
2016-10-11T00:24:48.400Z,0
2016-10-11T00:25:48.399Z,0
2016-10-11T00:26:48.374Z,0
2016-10-11T00:27:48.374Z,0
2016-10-11T00:28:48.357Z,0
2016-10-11T00:29:48.335Z,0
2016-10-11T00:30:48.347Z,0
2016-10-11T00:31:48.327Z,0
2016-10-11T00:32:48.306Z,0
2016-10-11T00:33:48.307Z,0
2016-10-11T00:34:48.288Z,0
2016-10-11T00:35:48.285Z,0
2016-10-11T00:36:48.261Z,0
2016-10-11T00:37:48.240Z,0
2016-10-11T00:38:48.246Z,0
2016-10-11T00:39:48.206Z,0
2016-10-11T00:40:48.197Z,0
2016-10-11T00:41:48.515Z,0
2016-10-11T00:42:48.186Z,0
2016-10-11T00:43:48.177Z,0
2016-10-11T00:44:48.158Z,0
2016-10-11T00:45:48.142Z,0
2016-10-11T00:46:48.131Z,0
2016-10-11T00:47:48.117Z,0
2016-10-11T00:48:48.112Z,0
2016-10-11T00:49:48.105Z,0
2016-10-11T00:50:48.083Z,0
2016-10-11T00:51:48.073Z,0
2016-10-11T00:52:48.068Z,0
2016-10-11T00:53:48.051Z,0
2016-10-11T00:54:48.364Z,0
2016-10-11T00:55:48.023Z,0
2016-10-11T00:56:48.016Z,0
2016-10-11T00:57:47.999Z,0
2016-10-11T00:58:47.986Z,0
2016-10-11T00:59:47.987Z,0
2016-10-11T01:00:47.956Z,0
2016-10-11T01:01:48.011Z,0
2016-10-11T01:02:47.939Z,0
2016-10-11T01:03:47.934Z,0
2016-10-11T01:04:47.918Z,0
2016-10-11T01:05:47.894Z,0
2016-10-11T01:06:47.889Z,0
2016-10-11T01:07:47.871Z,0
2016-10-11T01:08:47.877Z,0
2016-10-11T01:09:47.854Z,0
2016-10-11T01:10:47.830Z,0
2016-10-11T01:11:47.818Z,0
2016-10-11T01:12:47.806Z,0
2016-10-11T01:13:47.819Z,0
2016-10-11T01:14:47.885Z,0
2016-10-11T01:15:47.782Z,0
2016-10-11T01:16:47.753Z,0
2016-10-11T01:17:47.749Z,0
2016-10-11T01:18:48.053Z,0
2016-10-11T01:19:48.040Z,0
2016-10-11T01:20:47.729Z,0
2016-10-11T01:21:47.753Z,0
2016-10-11T01:22:47.692Z,0
2016-10-11T01:23:47.675Z,0
2016-10-11T01:24:47.681Z,0
2016-10-11T01:25:47.657Z,0
2016-10-11T01:26:47.627Z,0
2016-10-11T01:27:47.636Z,0
2016-10-11T01:28:47.610Z,0
2016-10-11T01:29:47.607Z,0
2016-10-11T01:30:47.596Z,0
2016-10-11T01:31:47.571Z,0
2016-10-11T01:32:47.566Z,0
2016-10-11T01:33:47.549Z,0
2016-10-11T01:34:47.550Z,0
2016-10-11T01:35:47.531Z,0
2016-10-11T01:36:47.537Z,0
2016-10-11T01:37:47.517Z,0
2016-10-11T01:38:47.497Z,0
2016-10-11T01:39:47.502Z,0
2016-10-11T01:40:47.476Z,0
2016-10-11T01:41:47.454Z,0
2016-10-11T01:42:47.437Z,0
2016-10-11T01:43:47.424Z,0
2016-10-11T01:44:47.416Z,0
2016-10-11T01:45:47.404Z,0
2016-10-11T01:46:47.405Z,0
2016-10-11T01:47:47.379Z,0
2016-10-11T01:48:47.368Z,0
2016-10-11T01:49:47.351Z,0
2016-10-11T01:50:47.357Z,0
2016-10-11T01:51:47.336Z,0
2016-10-11T01:52:47.316Z,0
2016-10-11T01:53:47.312Z,0
2016-10-11T01:54:47.292Z,0
2016-10-11T01:55:47.288Z,0
2016-10-11T01:56:47.276Z,0
2016-10-11T01:57:47.271Z,0
2016-10-11T01:58:47.316Z,0
2016-10-11T01:59:47.241Z,0
2016-10-11T02:00:47.224Z,0
2016-10-11T02:01:47.213Z,0
2016-10-11T02:02:47.211Z,0
2016-10-11T02:03:47.175Z,0
2016-10-11T02:04:47.175Z,0
2016-10-11T02:05:47.160Z,0
2016-10-11T02:06:47.143Z,0
2016-10-11T02:07:47.141Z,0
2016-10-11T02:08:47.160Z,0
2016-10-11T02:09:47.157Z,0
2016-10-11T02:10:47.163Z,0
2016-10-11T02:11:47.098Z,0
2016-10-11T02:12:47.075Z,0
2016-10-11T02:13:47.079Z,0
2016-10-11T02:14:47.090Z,0
2016-10-11T02:15:47.099Z,0
2016-10-11T02:16:47.108Z,0
2016-10-11T02:17:47.112Z,0
2016-10-11T02:18:47.048Z,0
2016-10-11T02:19:47.061Z,0
2016-10-11T02:20:47.065Z,0
2016-10-11T02:21:47.082Z,0
2016-10-11T02:22:47.092Z,0
2016-10-11T02:23:47.107Z,0
2016-10-11T02:24:47.110Z,0
2016-10-11T02:25:46.998Z,0
2016-10-11T02:26:47.005Z,0
2016-10-11T02:27:47.017Z,0
2016-10-11T02:28:47.029Z,0
2016-10-11T02:29:47.027Z,0
2016-10-11T02:30:47.360Z,0
2016-10-11T02:31:46.975Z,0
2016-10-11T02:32:46.971Z,0
2016-10-11T02:33:46.967Z,0
2016-10-11T02:34:46.968Z,0
2016-10-11T02:35:46.999Z,0
2016-10-11T02:36:47.008Z,0
2016-10-11T02:37:47.254Z,0
2016-10-11T02:38:46.917Z,0
2016-10-11T02:39:46.922Z,0
2016-10-11T02:40:46.932Z,0
2016-10-11T02:41:46.946Z,0
2016-10-11T02:42:47.071Z,0
2016-10-11T02:43:46.952Z,0
2016-10-11T02:44:46.821Z,0
2016-10-11T02:45:47.122Z,0
2016-10-11T02:46:46.797Z,0
2016-10-11T02:47:46.926Z,0
2016-10-11T02:48:46.905Z,0
2016-10-11T02:49:46.816Z,0
2016-10-11T02:50:46.768Z,0
2016-10-11T02:51:46.782Z,0
2016-10-11T02:52:46.777Z,0
2016-10-11T02:53:46.767Z,0
2016-10-11T02:54:47.074Z,0
2016-10-11T02:55:46.608Z,0
2016-10-11T02:56:46.601Z,0
2016-10-11T02:57:46.620Z,0
2016-10-11T02:58:46.603Z,0
2016-10-11T02:59:46.602Z,0
2016-10-11T03:00:46.528Z,0
2016-10-11T03:01:46.454Z,0
2016-10-11T03:02:46.443Z,0
2016-10-11T03:03:46.437Z,0
2016-10-11T03:04:46.436Z,0
2016-10-11T03:05:46.409Z,0
2016-10-11T03:06:46.386Z,0
2016-10-11T03:07:46.382Z,0
2016-10-11T03:08:46.365Z,0
2016-10-11T03:09:46.363Z,0
2016-10-11T03:10:46.336Z,0
2016-10-11T03:11:46.328Z,0
2016-10-11T03:12:46.366Z,0
2016-10-11T03:13:46.304Z,0
2016-10-11T03:14:46.296Z,0
2016-10-11T03:15:46.302Z,0
2016-10-11T03:16:46.262Z,0
2016-10-11T03:17:46.253Z,0
2016-10-11T03:18:46.236Z,0
2016-10-11T03:19:46.230Z,0
2016-10-11T03:20:46.230Z,0
2016-10-11T03:21:46.200Z,0
2016-10-11T03:22:46.183Z,0
2016-10-11T03:23:46.174Z,0
2016-10-11T03:24:46.163Z,0
2016-10-11T03:25:46.168Z,0
2016-10-11T03:26:46.150Z,0
2016-10-11T03:27:46.184Z,0
2016-10-11T03:28:46.128Z,0
2016-10-11T03:29:46.107Z,0
2016-10-11T03:30:46.101Z,0
2016-10-11T03:31:46.071Z,0
2016-10-11T03:32:46.063Z,0
2016-10-11T03:33:46.057Z,0
2016-10-11T03:34:46.038Z,0
2016-10-11T03:35:46.034Z,0
2016-10-11T03:36:46.023Z,0
2016-10-11T03:37:46.314Z,0
2016-10-11T03:38:46.054Z,0
2016-10-11T03:39:45.967Z,0
2016-10-11T03:40:45.968Z,0
2016-10-11T03:41:45.952Z,0
2016-10-11T03:42:45.940Z,0
2016-10-11T03:43:46.245Z,0
2016-10-11T03:44:45.921Z,0
2016-10-11T03:45:46.212Z,0
2016-10-11T03:46:45.900Z,0
2016-10-11T03:47:45.876Z,0
2016-10-11T03:48:45.859Z,0
2016-10-11T03:49:45.876Z,0
2016-10-11T03:50:45.835Z,0
2016-10-11T03:51:45.843Z,0
2016-10-11T03:52:45.812Z,0
2016-10-11T03:53:45.804Z,0
2016-10-11T03:54:45.815Z,0
2016-10-11T03:55:45.768Z,0
2016-10-11T03:56:46.081Z,0
2016-10-11T03:57:45.742Z,0
2016-10-11T03:58:45.734Z,0
2016-10-11T03:59:46.037Z,0
2016-10-11T04:00:45.762Z,0
2016-10-11T04:01:45.705Z,0
2016-10-11T04:02:45.736Z,0
2016-10-11T04:03:45.986Z,0
2016-10-11T04:04:45.653Z,0
2016-10-11T04:05:45.971Z,0
2016-10-11T04:06:45.947Z,0
2016-10-11T04:07:45.646Z,0
2016-10-11T04:08:45.655Z,0
2016-10-11T04:09:45.600Z,0
2016-10-11T04:10:45.903Z,0
2016-10-11T04:11:45.569Z,0
2016-10-11T04:12:45.575Z,0
2016-10-11T04:13:45.543Z,0
2016-10-11T04:14:45.541Z,0
2016-10-11T04:15:45.844Z,0
2016-10-11T04:16:45.505Z,0
2016-10-11T04:17:45.512Z,0
2016-10-11T04:18:45.488Z,0
2016-10-11T04:19:45.471Z,0
2016-10-11T04:20:45.759Z,0
2016-10-11T04:21:45.766Z,0
2016-10-11T04:22:45.450Z,0
2016-10-11T04:23:45.451Z,0
2016-10-11T04:24:45.419Z,0
2016-10-11T04:25:45.383Z,0
2016-10-11T04:26:45.388Z,0
2016-10-11T04:27:45.375Z,0
2016-10-11T04:28:45.408Z,0
2016-10-11T04:29:45.339Z,0
2016-10-11T04:30:45.338Z,0
2016-10-11T04:31:45.316Z,0
2016-10-11T04:32:45.312Z,0
2016-10-11T04:33:45.318Z,0
2016-10-11T04:34:45.281Z,0
2016-10-11T04:35:45.586Z,0
2016-10-11T04:36:45.249Z,0
2016-10-11T04:37:45.249Z,0
2016-10-11T04:38:45.227Z,0
2016-10-11T04:39:45.538Z,0
2016-10-11T04:40:45.200Z,0
2016-10-11T04:41:45.516Z,0
2016-10-11T04:42:45.182Z,0
2016-10-11T04:43:45.180Z,0
2016-10-11T04:44:45.472Z,0
2016-10-11T04:45:45.147Z,0
2016-10-11T04:46:45.207Z,0
2016-10-11T04:47:45.114Z,0
2016-10-11T04:48:45.467Z,0
2016-10-11T04:49:45.089Z,0
2016-10-11T04:50:45.074Z,0
2016-10-11T04:51:45.068Z,0
2016-10-11T04:52:45.047Z,0
2016-10-11T04:53:45.049Z,0
2016-10-11T04:54:45.030Z,0
2016-10-11T04:55:45.008Z,0
2016-10-11T04:56:45.001Z,0
2016-10-11T04:57:44.988Z,0
2016-10-11T04:58:44.998Z,0
2016-10-11T04:59:45.280Z,0
2016-10-11T05:00:44.949Z,0
2016-10-11T05:01:44.936Z,0
2016-10-11T05:02:44.929Z,0
2016-10-11T05:03:44.923Z,0
2016-10-11T05:04:44.905Z,0
2016-10-11T05:05:44.907Z,0
2016-10-11T05:06:44.871Z,0
2016-10-11T05:07:44.855Z,0
2016-10-11T05:08:44.858Z,0
2016-10-11T05:09:44.841Z,0
2016-10-11T05:10:44.842Z,0
2016-10-11T05:11:44.809Z,0
2016-10-11T05:12:45.119Z,0
2016-10-11T05:13:44.792Z,0
2016-10-11T05:14:44.792Z,0
2016-10-11T05:15:44.801Z,0
2016-10-11T05:16:44.811Z,0
2016-10-11T05:17:44.817Z,0
2016-10-11T05:18:44.814Z,0
2016-10-11T05:19:44.829Z,0
2016-10-11T05:20:44.765Z,0
2016-10-11T05:21:44.803Z,0
2016-10-11T05:22:44.751Z,0
2016-10-11T05:23:44.749Z,0
2016-10-11T05:24:44.764Z,0
2016-10-11T05:25:44.708Z,0
2016-10-11T05:26:44.704Z,0
2016-10-11T05:27:44.711Z,0
2016-10-11T05:28:44.724Z,0
2016-10-11T05:29:44.738Z,0
2016-10-11T05:30:44.741Z,0
2016-10-11T05:31:44.739Z,0
2016-10-11T05:32:44.746Z,0
2016-10-11T05:33:44.701Z,0
2016-10-11T05:34:44.699Z,5
2016-10-11T05:35:44.669Z,5
2016-10-11T05:36:44.672Z,5
2016-10-11T05:37:44.651Z,5
2016-10-11T05:38:44.625Z,0
2016-10-11T05:39:44.693Z,5
2016-10-11T05:40:44.636Z,5
2016-10-11T05:41:44.644Z,5
2016-10-11T05:42:44.650Z,5
2016-10-11T05:43:44.673Z,5
2016-10-11T05:44:44.742Z,5
2016-10-11T05:45:44.991Z,5
2016-10-11T05:46:44.682Z,5
2016-10-11T05:47:44.588Z,5
2016-10-11T05:48:44.588Z,5
2016-10-11T05:49:44.603Z,5
2016-10-11T05:50:44.600Z,5
2016-10-11T05:51:44.469Z,10
2016-10-11T05:52:44.452Z,10
2016-10-11T05:53:44.455Z,10
2016-10-11T05:54:44.577Z,10
2016-10-11T05:55:44.434Z,15
2016-10-11T05:56:44.451Z,15
2016-10-11T05:57:44.449Z,20
2016-10-11T05:58:44.446Z,20
2016-10-11T05:59:44.437Z,25
2016-10-11T06:00:44.428Z,30
2016-10-11T06:01:44.273Z,30
2016-10-11T06:02:44.271Z,30
2016-10-11T06:03:44.265Z,25
2016-10-11T06:04:44.321Z,25
2016-10-11T06:05:44.262Z,30
2016-10-11T06:06:44.133Z,35
2016-10-11T06:07:44.129Z,35
2016-10-11T06:08:44.092Z,35
2016-10-11T06:09:44.106Z,30
2016-10-11T06:10:44.077Z,35
2016-10-11T06:11:44.074Z,45
2016-10-11T06:12:44.037Z,55
2016-10-11T06:13:44.058Z,55
2016-10-11T06:14:44.025Z,60
2016-10-11T06:15:44.057Z,60
2016-10-11T06:16:44.005Z,60
2016-10-11T06:17:44.015Z,60
2016-10-11T06:18:43.975Z,60
2016-10-11T06:19:43.981Z,60
2016-10-11T06:20:43.962Z,60
2016-10-11T06:21:43.942Z,65
2016-10-11T06:22:43.921Z,65
2016-10-11T06:23:43.950Z,65
2016-10-11T06:24:43.909Z,70
2016-10-11T06:25:43.878Z,75
2016-10-11T06:26:43.878Z,80
2016-10-11T06:27:43.877Z,75
2016-10-11T06:28:43.849Z,75
2016-10-11T06:29:43.844Z,75
2016-10-11T06:30:44.327Z,75
2016-10-11T06:31:43.841Z,80
2016-10-11T06:32:43.813Z,80
2016-10-11T06:33:43.818Z,75
2016-10-11T06:34:43.778Z,75
2016-10-11T06:35:43.766Z,70
2016-10-11T06:36:43.749Z,70
2016-10-11T06:37:43.748Z,65
2016-10-11T06:38:43.726Z,60
2016-10-11T06:39:43.710Z,60
2016-10-11T06:40:43.716Z,60
2016-10-11T06:41:43.712Z,60
2016-10-11T06:42:43.680Z,60
2016-10-11T06:43:43.658Z,60
2016-10-11T06:44:43.651Z,60
2016-10-11T06:45:43.649Z,60
2016-10-11T06:46:43.627Z,65
2016-10-11T06:47:43.621Z,65
2016-10-11T06:48:43.622Z,65
2016-10-11T06:49:43.631Z,70
2016-10-11T06:50:43.582Z,70
2016-10-11T06:51:43.617Z,80
2016-10-11T06:52:43.557Z,85
2016-10-11T06:53:43.551Z,100
2016-10-11T06:54:43.530Z,115
2016-10-11T06:55:43.517Z,135
2016-10-11T06:56:43.517Z,150
2016-10-11T06:57:43.492Z,160
2016-10-11T06:58:43.488Z,165
2016-10-11T06:59:43.470Z,170
2016-10-11T07:00:43.455Z,175
2016-10-11T07:01:43.449Z,175
2016-10-11T07:02:43.428Z,175
2016-10-11T07:03:43.423Z,170
2016-10-11T07:04:43.424Z,175
2016-10-11T07:05:43.415Z,165
2016-10-11T07:06:43.387Z,165
2016-10-11T07:07:43.375Z,160
2016-10-11T07:08:43.373Z,155
2016-10-11T07:09:43.363Z,145
2016-10-11T07:10:43.530Z,145
2016-10-11T07:11:43.322Z,135
2016-10-11T07:12:43.326Z,125
2016-10-11T07:13:43.299Z,110
2016-10-11T07:14:43.311Z,100
2016-10-11T07:15:43.277Z,100
2016-10-11T07:16:43.284Z,100
2016-10-11T07:17:43.536Z,105
2016-10-11T07:18:43.236Z,100
2016-10-11T07:19:43.227Z,85
2016-10-11T07:20:43.229Z,100
2016-10-11T07:21:43.197Z,115
2016-10-11T07:22:43.193Z,115
2016-10-11T07:23:43.365Z,130
2016-10-11T07:24:43.483Z,150
2016-10-11T07:25:43.576Z,150
2016-10-11T07:26:43.172Z,140
2016-10-11T07:27:43.340Z,110
2016-10-11T07:28:43.121Z,105
2016-10-11T07:29:43.124Z,95
2016-10-11T07:30:43.190Z,90
2016-10-11T07:31:43.176Z,95
2016-10-11T07:32:43.186Z,110
2016-10-11T07:33:43.238Z,130
2016-10-11T07:34:43.059Z,135
2016-10-11T07:35:43.035Z,120
2016-10-11T07:36:43.195Z,120
2016-10-11T07:37:43.181Z,125
2016-10-11T07:38:43.625Z,135
2016-10-11T07:39:42.993Z,140
2016-10-11T07:40:43.007Z,155
2016-10-11T07:41:42.973Z,155
2016-10-11T07:42:42.967Z,160
2016-10-11T07:43:42.948Z,150
2016-10-11T07:44:42.941Z,150
2016-10-11T07:45:42.946Z,160
2016-10-11T07:46:42.910Z,170
2016-10-11T07:47:42.914Z,180
2016-10-11T07:48:42.887Z,175
2016-10-11T07:49:42.882Z,175
2016-10-11T07:50:42.865Z,180
2016-10-11T07:51:42.885Z,180
2016-10-11T07:52:42.846Z,180
2016-10-11T07:53:42.864Z,185
2016-10-11T07:54:42.834Z,185
2016-10-11T07:55:42.817Z,190
2016-10-11T07:56:42.833Z,195
2016-10-11T07:57:42.782Z,205
2016-10-11T07:58:43.616Z,235
2016-10-11T07:59:42.750Z,245
2016-10-11T08:00:42.761Z,235
2016-10-11T08:01:42.736Z,220
2016-10-11T08:02:42.741Z,225
2016-10-11T08:03:42.723Z,235
2016-10-11T08:04:42.700Z,230
2016-10-11T08:05:42.692Z,230
2016-10-11T08:06:42.688Z,235
2016-10-11T08:07:42.680Z,240
2016-10-11T08:08:42.988Z,230
2016-10-11T08:09:42.655Z,215
2016-10-11T08:10:42.658Z,205
2016-10-11T08:11:42.623Z,200
2016-10-11T08:12:42.614Z,205
2016-10-11T08:13:42.649Z,220
2016-10-11T08:14:42.596Z,220
2016-10-11T08:15:42.602Z,235
2016-10-11T08:16:42.634Z,245
2016-10-11T08:17:42.565Z,280
2016-10-11T08:18:42.572Z,270
2016-10-11T08:19:42.549Z,280
2016-10-11T08:20:42.558Z,325
2016-10-11T08:21:42.527Z,365
2016-10-11T08:22:42.507Z,365
2016-10-11T08:23:42.493Z,385
2016-10-11T08:24:42.489Z,380
2016-10-11T08:25:42.485Z,395
2016-10-11T08:26:42.475Z,385
2016-10-11T08:27:42.446Z,355
2016-10-11T08:28:42.440Z,310
2016-10-11T08:29:42.423Z,265
2016-10-11T08:30:42.420Z,200
2016-10-11T08:31:42.412Z,175
2016-10-11T08:32:42.394Z,170
2016-10-11T08:33:42.378Z,165
2016-10-11T08:34:42.381Z,155
2016-10-11T08:35:42.359Z,145
2016-10-11T08:36:42.397Z,135
2016-10-11T08:37:42.355Z,130
2016-10-11T08:38:42.346Z,130
2016-10-11T08:39:42.330Z,130
2016-10-11T08:40:42.634Z,130
2016-10-11T08:41:42.321Z,135
2016-10-11T08:42:42.299Z,135
2016-10-11T08:43:42.308Z,140
2016-10-11T08:44:42.276Z,145
2016-10-11T08:45:42.262Z,150
2016-10-11T08:46:42.576Z,150
2016-10-11T08:47:42.247Z,155
2016-10-11T08:48:42.294Z,155
2016-10-11T08:49:42.230Z,145
2016-10-11T08:50:42.200Z,135
2016-10-11T08:51:42.246Z,110
2016-10-11T08:52:42.508Z,105
2016-10-11T08:53:42.203Z,95
2016-10-11T08:54:42.165Z,95
2016-10-11T08:55:42.167Z,100
2016-10-11T08:56:42.152Z,105
2016-10-11T08:57:42.257Z,110
2016-10-11T08:58:42.160Z,110
2016-10-11T08:59:42.106Z,115
2016-10-11T09:00:42.112Z,120
2016-10-11T09:01:42.297Z,125
2016-10-11T09:02:42.115Z,125
2016-10-11T09:03:42.067Z,140
2016-10-11T09:04:42.074Z,160
2016-10-11T09:05:42.047Z,180
2016-10-11T09:06:42.046Z,200
2016-10-11T09:07:42.360Z,220
2016-10-11T09:08:42.012Z,235
2016-10-11T09:09:42.015Z,240
2016-10-11T09:10:42.001Z,240
2016-10-11T09:11:41.995Z,240
2016-10-11T09:12:42.017Z,245
2016-10-11T09:13:41.960Z,255
2016-10-11T09:14:41.951Z,270
2016-10-11T09:15:42.016Z,290
2016-10-11T09:16:41.919Z,300
2016-10-11T09:17:41.924Z,300
2016-10-11T09:18:41.908Z,295
2016-10-11T09:19:41.921Z,285
2016-10-11T09:20:41.883Z,280
2016-10-11T09:21:41.897Z,270
2016-10-11T09:22:41.867Z,270
2016-10-11T09:23:41.866Z,265
2016-10-11T09:24:41.846Z,265
2016-10-11T09:25:41.847Z,275
2016-10-11T09:26:41.835Z,280
2016-10-11T09:27:41.807Z,260
2016-10-11T09:28:41.852Z,245
2016-10-11T09:29:41.801Z,240
2016-10-11T09:30:41.795Z,245
2016-10-11T09:31:42.093Z,260
2016-10-11T09:32:41.776Z,275
2016-10-11T09:33:41.758Z,305
2016-10-11T09:34:41.735Z,315
2016-10-11T09:35:41.743Z,345
2016-10-11T09:36:41.823Z,340
2016-10-11T09:37:41.757Z,355
2016-10-11T09:38:41.711Z,360
2016-10-11T09:39:41.711Z,330
2016-10-11T09:40:41.683Z,290
2016-10-11T09:41:41.682Z,270
2016-10-11T09:42:41.652Z,255
2016-10-11T09:43:41.656Z,240
2016-10-11T09:44:41.652Z,220
2016-10-11T09:45:41.655Z,215
2016-10-11T09:46:41.624Z,200
2016-10-11T09:47:41.622Z,200
2016-10-11T09:48:41.599Z,215
2016-10-11T09:49:41.601Z,240
2016-10-11T09:50:41.572Z,260
2016-10-11T09:51:41.560Z,280
2016-10-11T09:52:41.574Z,275
2016-10-11T09:53:41.563Z,310
2016-10-11T09:54:41.534Z,330
2016-10-11T09:55:41.524Z,325
2016-10-11T09:56:41.511Z,345
2016-10-11T09:57:41.560Z,345
2016-10-11T09:58:41.503Z,315
2016-10-11T09:59:41.503Z,290
2016-10-11T10:00:41.470Z,285
2016-10-11T10:01:41.465Z,280
2016-10-11T10:02:41.449Z,275
2016-10-11T10:03:41.457Z,255
2016-10-11T10:04:41.439Z,245
2016-10-11T10:05:41.446Z,235
2016-10-11T10:06:41.408Z,220
2016-10-11T10:07:41.417Z,220
2016-10-11T10:08:41.412Z,225
2016-10-11T10:09:41.397Z,235
2016-10-11T10:10:41.382Z,240
2016-10-11T10:11:41.385Z,240
2016-10-11T10:12:41.396Z,245
2016-10-11T10:13:41.398Z,250
2016-10-11T10:14:41.412Z,250
2016-10-11T10:15:41.647Z,260
2016-10-11T10:16:41.329Z,270
2016-10-11T10:17:41.380Z,295
2016-10-11T10:18:41.333Z,305
2016-10-11T10:19:41.344Z,310
2016-10-11T10:20:41.402Z,315
2016-10-11T10:21:41.354Z,300
2016-10-11T10:22:41.361Z,305
2016-10-11T10:23:41.310Z,310
2016-10-11T10:24:41.324Z,315
2016-10-11T10:25:41.319Z,325
2016-10-11T10:26:41.324Z,330
2016-10-11T10:27:41.362Z,330
2016-10-11T10:28:41.243Z,330
2016-10-11T10:29:41.242Z,315
2016-10-11T10:30:41.249Z,305
2016-10-11T10:31:41.268Z,295
2016-10-11T10:32:41.326Z,280
2016-10-11T10:33:41.277Z,260
2016-10-11T10:34:41.283Z,255
2016-10-11T10:35:41.288Z,250
2016-10-11T10:36:41.299Z,230
2016-10-11T10:37:41.305Z,225
2016-10-11T10:38:41.254Z,225
2016-10-11T10:39:41.254Z,210
2016-10-11T10:40:41.250Z,195
2016-10-11T10:41:41.377Z,190
2016-10-11T10:42:41.243Z,175
2016-10-11T10:43:41.251Z,160
2016-10-11T10:44:41.175Z,150
2016-10-11T10:45:41.191Z,135
2016-10-11T10:46:41.203Z,125
2016-10-11T10:47:41.202Z,125
2016-10-11T10:48:42.412Z,135
2016-10-11T10:49:41.208Z,150
2016-10-11T10:50:41.221Z,175
2016-10-11T10:51:41.630Z,195
2016-10-11T10:52:41.250Z,210
2016-10-11T10:53:41.251Z,230
2016-10-11T10:54:41.284Z,245
2016-10-11T10:55:41.161Z,260
2016-10-11T10:56:41.166Z,275
2016-10-11T10:57:41.176Z,280
2016-10-11T10:58:41.183Z,280
2016-10-11T10:59:41.182Z,280
2016-10-11T11:00:41.190Z,290
2016-10-11T11:01:41.020Z,300
2016-10-11T11:02:41.023Z,295
2016-10-11T11:03:41.145Z,275
2016-10-11T11:04:41.045Z,265
2016-10-11T11:05:41.041Z,245
2016-10-11T11:06:41.000Z,240
2016-10-11T11:07:41.001Z,245
2016-10-11T11:08:41.001Z,270
2016-10-11T11:09:40.998Z,275
2016-10-11T11:10:41.011Z,280
2016-10-11T11:11:40.992Z,280
2016-10-11T11:12:40.998Z,280
2016-10-11T11:13:40.996Z,290
2016-10-11T11:14:40.837Z,295
2016-10-11T11:15:40.992Z,310
2016-10-11T11:16:40.832Z,325
2016-10-11T11:17:40.830Z,325
2016-10-11T11:18:40.820Z,335
2016-10-11T11:19:40.827Z,340
2016-10-11T11:20:40.696Z,345
2016-10-11T11:21:40.677Z,355
2016-10-11T11:22:40.659Z,360
2016-10-11T11:23:40.641Z,355
2016-10-11T11:24:40.649Z,340
2016-10-11T11:25:40.653Z,355
2016-10-11T11:26:40.624Z,355
2016-10-11T11:27:40.615Z,335
2016-10-11T11:28:40.604Z,320
2016-10-11T11:29:40.612Z,320
2016-10-11T11:30:40.585Z,325
2016-10-11T11:31:40.601Z,315
2016-10-11T11:32:40.559Z,290
2016-10-11T11:33:40.551Z,265
2016-10-11T11:34:40.543Z,240
2016-10-11T11:35:40.998Z,240
2016-10-11T11:36:40.531Z,205
2016-10-11T11:37:40.518Z,185
2016-10-11T11:38:40.497Z,185
2016-10-11T11:39:40.490Z,195
2016-10-11T11:40:40.484Z,175
2016-10-11T11:41:40.492Z,135
2016-10-11T11:42:40.489Z,120
2016-10-11T11:43:40.529Z,120
2016-10-11T11:44:40.449Z,130
2016-10-11T11:45:40.442Z,150
2016-10-11T11:46:40.434Z,150
2016-10-11T11:47:40.433Z,140
2016-10-11T11:48:40.955Z,140
2016-10-11T11:49:40.410Z,135
2016-10-11T11:50:40.411Z,130
2016-10-11T11:51:40.381Z,125
2016-10-11T11:52:40.364Z,105
2016-10-11T11:53:40.420Z,90
2016-10-11T11:54:40.350Z,70
2016-10-11T11:55:40.351Z,65
2016-10-11T11:56:40.333Z,55
2016-10-11T11:57:40.319Z,45
2016-10-11T11:58:40.309Z,35
2016-10-11T11:59:40.310Z,35
2016-10-11T12:00:40.288Z,35
2016-10-11T12:01:40.286Z,40
2016-10-11T12:02:40.264Z,50
2016-10-11T12:03:40.243Z,55
2016-10-11T12:04:40.244Z,70
2016-10-11T12:05:40.264Z,75
2016-10-11T12:06:40.218Z,75
2016-10-11T12:07:40.216Z,80
2016-10-11T12:08:40.200Z,80
2016-10-11T12:09:40.895Z,85
2016-10-11T12:10:40.177Z,85
2016-10-11T12:11:40.202Z,90
2016-10-11T12:12:40.171Z,100
2016-10-11T12:13:40.144Z,105
2016-10-11T12:14:40.136Z,110
2016-10-11T12:15:40.120Z,115
2016-10-11T12:16:40.123Z,115
2016-10-11T12:17:40.126Z,115
2016-10-11T12:18:40.082Z,115
2016-10-11T12:19:40.083Z,110
2016-10-11T12:20:40.063Z,115
2016-10-11T12:21:40.057Z,105
2016-10-11T12:22:40.053Z,100
2016-10-11T12:23:40.029Z,90
2016-10-11T12:24:40.022Z,85
2016-10-11T12:25:40.009Z,80
2016-10-11T12:26:39.989Z,80
2016-10-11T12:27:39.983Z,75
2016-10-11T12:28:39.960Z,75
2016-10-11T12:29:39.959Z,70
2016-10-11T12:30:39.945Z,70
2016-10-11T12:31:39.930Z,75
2016-10-11T12:32:39.928Z,80
2016-10-11T12:33:39.901Z,90
2016-10-11T12:34:39.897Z,105
2016-10-11T12:35:39.894Z,115
2016-10-11T12:36:39.866Z,125
2016-10-11T12:37:39.859Z,125
2016-10-11T12:38:39.841Z,130
2016-10-11T12:39:39.843Z,130
2016-10-11T12:40:39.816Z,125
2016-10-11T12:41:39.811Z,120
2016-10-11T12:42:39.795Z,125
2016-10-11T12:43:39.780Z,140
2016-10-11T12:44:39.767Z,145
2016-10-11T12:45:39.758Z,145
2016-10-11T12:46:39.757Z,140
2016-10-11T12:47:39.737Z,130
2016-10-11T12:48:39.737Z,165
2016-10-11T12:49:39.723Z,175
2016-10-11T12:50:39.691Z,185
2016-10-11T12:51:39.705Z,190
2016-10-11T12:52:39.668Z,195
2016-10-11T12:53:39.684Z,195
2016-10-11T12:54:39.647Z,185
2016-10-11T12:55:39.645Z,150
2016-10-11T12:56:39.632Z,130
2016-10-11T12:57:39.631Z,170
2016-10-11T12:58:39.604Z,215
2016-10-11T12:59:39.606Z,210
2016-10-11T13:00:39.583Z,195
2016-10-11T13:01:39.585Z,175
2016-10-11T13:02:39.548Z,170
2016-10-11T13:03:39.545Z,190
2016-10-11T13:04:39.518Z,175
2016-10-11T13:05:39.519Z,150
2016-10-11T13:06:39.609Z,185
2016-10-11T13:07:39.516Z,175
2016-10-11T13:08:39.810Z,170
2016-10-11T13:09:39.501Z,165
2016-10-11T13:10:39.463Z,195
2016-10-11T13:11:39.451Z,185
2016-10-11T13:12:39.439Z,150
2016-10-11T13:13:39.436Z,150
2016-10-11T13:14:39.408Z,165
2016-10-11T13:15:39.405Z,150
2016-10-11T13:16:39.388Z,155
2016-10-11T13:17:39.394Z,140
2016-10-11T13:18:39.372Z,120
2016-10-11T13:19:39.357Z,130
2016-10-11T13:20:39.346Z,135
2016-10-11T13:21:39.329Z,130
2016-10-11T13:22:39.323Z,125
2016-10-11T13:23:39.312Z,145
2016-10-11T13:24:39.302Z,145
2016-10-11T13:25:39.283Z,145
2016-10-11T13:26:39.283Z,150
2016-10-11T13:27:39.270Z,140
2016-10-11T13:28:39.241Z,130
2016-10-11T13:29:39.306Z,115
2016-10-11T13:30:39.224Z,105
2016-10-11T13:31:39.223Z,105
2016-10-11T13:32:39.208Z,105
2016-10-11T13:33:39.199Z,105
2016-10-11T13:34:39.178Z,105
2016-10-11T13:35:39.186Z,110
2016-10-11T13:36:39.153Z,115
2016-10-11T13:37:39.144Z,130
2016-10-11T13:38:39.124Z,140
2016-10-11T13:39:39.113Z,135
2016-10-11T13:40:39.125Z,120
2016-10-11T13:41:39.104Z,115
2016-10-11T13:42:39.117Z,105
2016-10-11T13:43:39.080Z,95
2016-10-11T13:44:39.077Z,85
2016-10-11T13:45:39.075Z,70
2016-10-11T13:46:39.057Z,80
2016-10-11T13:47:39.040Z,85
2016-10-11T13:48:39.049Z,90
2016-10-11T13:49:39.065Z,90
2016-10-11T13:50:39.068Z,95
2016-10-11T13:51:38.988Z,95
2016-10-11T13:52:38.978Z,95
2016-10-11T13:53:38.987Z,90
2016-10-11T13:54:38.992Z,80
2016-10-11T13:55:39.009Z,85
2016-10-11T13:56:39.021Z,90
2016-10-11T13:57:39.007Z,85
2016-10-11T13:58:38.956Z,85
2016-10-11T13:59:38.971Z,85
2016-10-11T14:00:38.972Z,85
2016-10-11T14:01:38.977Z,80
2016-10-11T14:02:38.983Z,70
2016-10-11T14:03:38.897Z,70
2016-10-11T14:04:38.891Z,65
2016-10-11T14:05:38.960Z,55
2016-10-11T14:06:38.908Z,45
2016-10-11T14:07:38.920Z,35
2016-10-11T14:08:38.934Z,30
2016-10-11T14:09:38.928Z,30
2016-10-11T14:10:38.935Z,30
2016-10-11T14:11:38.943Z,25
2016-10-11T14:12:38.923Z,20
2016-10-11T14:13:38.826Z,20
2016-10-11T14:14:38.827Z,25